createdAt,value
2022-08-09T00:04:44.406Z,29.40
2022-08-09T00:10:07.249Z,29.40
2022-08-09T00:15:15.115Z,29.40
2022-08-09T00:20:20.322Z,29.40
2022-08-09T00:25:32.049Z,29.40
2022-08-09T00:30:36.256Z,29.40
2022-08-09T00:35:43.071Z,29.40
2022-08-09T00:40:53.111Z,29.40
2022-08-09T00:45:56.650Z,29.40
2022-08-09T00:51:11.947Z,29.40
2022-08-09T00:56:16.622Z,29.40
2022-08-09T01:01:23.751Z,29.40
2022-08-09T01:06:54.521Z,29.40
2022-08-09T01:12:06.508Z,29.30
2022-08-09T01:17:19.334Z,29.40
2022-08-09T01:22:41.251Z,29.40
2022-08-09T01:27:50.843Z,29.30
2022-08-09T01:32:58.138Z,29.30
2022-08-09T01:38:10.788Z,29.30
2022-08-09T01:43:21.203Z,29.30
2022-08-09T01:48:29.807Z,29.30
2022-08-09T01:53:41.354Z,29.30
2022-08-09T01:58:49.122Z,29.30
2022-08-09T02:03:54.570Z,29.30
2022-08-09T02:08:59.708Z,29.20
2022-08-09T02:21:08.942Z,29.20
2022-08-09T02:26:26.943Z,29.20
2022-08-09T02:31:36.118Z,29.20
2022-08-09T02:36:44.281Z,29.10
2022-08-09T02:41:51.742Z,29.10
2022-08-09T02:46:57.650Z,29.00
2022-08-09T02:52:03.883Z,29.00
2022-08-09T02:57:14.143Z,29.00
2022-08-09T03:02:27.777Z,29.00
2022-08-09T03:07:33.555Z,29.00
2022-08-09T03:12:39.102Z,29.00
2022-08-09T03:17:43.499Z,28.90
2022-08-09T03:22:56.963Z,28.90
2022-08-09T03:28:03.826Z,28.90
2022-08-09T03:33:17.876Z,28.90
2022-08-09T03:38:28.904Z,28.90
2022-08-09T03:43:33.560Z,28.90
2022-08-09T03:48:51.402Z,28.90
2022-08-09T03:53:56.596Z,28.80
2022-08-09T03:59:03.251Z,28.80
2022-08-09T04:04:14.825Z,28.80
2022-08-09T04:09:47.636Z,28.80
2022-08-09T04:14:54.020Z,28.80
2022-08-09T04:20:06.936Z,28.80
2022-08-09T04:25:13.159Z,28.70
2022-08-09T04:30:20.810Z,28.70
2022-08-09T04:35:27.841Z,28.70
2022-08-09T04:40:54.163Z,28.70
2022-08-09T04:46:01.302Z,28.70
2022-08-09T04:51:04.827Z,28.70
2022-08-09T04:56:10.204Z,28.70
2022-08-09T05:01:16.100Z,28.60
2022-08-09T05:06:27.958Z,28.50
2022-08-09T05:11:35.490Z,28.40
2022-08-09T05:16:43.616Z,28.30
2022-08-09T05:22:02.532Z,28.00
2022-08-09T05:27:07.863Z,27.80
2022-08-09T05:32:11.154Z,27.60
2022-08-09T05:37:15.266Z,27.50
2022-08-09T05:42:21.237Z,27.40
2022-08-09T05:47:30.334Z,27.30
2022-08-09T05:52:38.483Z,27.30
2022-08-09T05:57:50.937Z,27.20
2022-08-09T06:03:00.398Z,27.20
2022-08-09T06:08:05.235Z,27.20
2022-08-09T06:13:20.216Z,27.20
2022-08-09T06:18:25.147Z,27.20
2022-08-09T06:23:55.076Z,27.20
2022-08-09T06:28:59.955Z,27.20
2022-08-09T06:34:05.302Z,27.30
2022-08-09T06:39:11.630Z,27.30
2022-08-09T06:44:18.368Z,27.30
2022-08-09T06:49:22.775Z,27.30
2022-08-09T06:54:44.980Z,27.30
2022-08-09T07:00:54.583Z,27.30
2022-08-09T07:05:12.778Z,27.30
2022-08-09T07:10:22.501Z,27.30
2022-08-09T07:16:34.928Z,27.40
2022-08-09T07:20:53.486Z,27.40
2022-08-09T07:26:02.767Z,27.50
2022-08-09T07:31:07.724Z,27.50
2022-08-09T07:36:13.476Z,27.50
2022-08-09T07:41:16.903Z,27.60
2022-08-09T07:46:21.790Z,27.60
2022-08-09T07:52:06.331Z,27.70
2022-08-09T07:56:54.273Z,27.80
2022-08-09T08:01:59.460Z,27.90
2022-08-09T08:07:09.312Z,28.00
2022-08-09T08:12:27.975Z,28.00
2022-08-09T08:17:52.966Z,28.20
2022-08-09T08:23:01.783Z,28.30
2022-08-09T08:28:10.173Z,28.50
2022-08-09T08:33:24.421Z,28.60
2022-08-09T08:38:28.187Z,28.80
2022-08-09T08:43:31.791Z,29.00
2022-08-09T08:48:37.837Z,29.20
2022-08-09T08:54:03.109Z,29.40
2022-08-09T08:59:19.473Z,29.50
2022-08-09T09:04:31.252Z,29.70
2022-08-09T09:09:58.717Z,29.90
2022-08-09T09:15:05.654Z,30.10
2022-08-09T09:20:15.559Z,30.30
2022-08-09T09:26:01.911Z,30.50
2022-08-09T09:30:58.083Z,30.70
2022-08-09T09:36:19.720Z,30.80
2022-08-09T09:41:39.962Z,31.00
2022-08-09T09:46:57.310Z,31.20
2022-08-09T09:52:07.102Z,31.50
2022-08-09T09:58:02.503Z,31.70
2022-08-09T10:02:53.602Z,31.90
2022-08-09T10:08:27.403Z,32.10
2022-08-09T10:13:43.192Z,32.20
2022-08-09T10:18:54.431Z,32.50
2022-08-09T10:24:04.031Z,32.70
2022-08-09T10:29:32.818Z,32.90
2022-08-09T10:34:33.676Z,33.20
2022-08-09T10:39:49.397Z,33.40
2022-08-09T10:44:58.475Z,33.70
2022-08-09T10:50:09.985Z,33.80
2022-08-09T10:55:25.735Z,34.00
2022-08-09T11:01:10.662Z,34.10
2022-08-09T11:06:24.621Z,34.10
2022-08-09T11:12:07.493Z,34.10
2022-08-09T11:17:56.846Z,34.20
2022-08-09T11:23:07.149Z,34.30
2022-08-09T11:28:54.688Z,34.30
2022-08-09T11:34:04.792Z,34.40
2022-08-09T11:39:08.112Z,34.60
2022-08-09T11:44:15.940Z,34.70
2022-08-09T11:49:28.251Z,34.80
2022-08-09T11:54:43.530Z,34.80
2022-08-09T11:59:52.232Z,34.90
2022-08-09T12:04:59.104Z,35.00
2022-08-09T12:10:02.941Z,35.10
2022-08-09T12:15:50.491Z,35.20
2022-08-09T12:20:46.474Z,35.30
2022-08-09T12:25:51.633Z,35.50
2022-08-09T12:30:57.762Z,35.60
2022-08-09T12:36:05.981Z,35.70
2022-08-09T12:41:36.266Z,35.80
2022-08-09T12:46:48.999Z,35.90
2022-08-09T12:52:01.283Z,36.00
2022-08-09T12:57:06.486Z,36.10
2022-08-09T13:02:11.284Z,36.10
2022-08-09T13:07:20.045Z,36.10
2022-08-09T13:13:10.278Z,36.20
2022-08-09T13:18:17.672Z,36.40
2022-08-09T13:24:16.270Z,36.40
2022-08-09T13:29:03.659Z,36.40
2022-08-09T13:34:08.196Z,36.50
2022-08-09T13:41:45.743Z,36.60
2022-08-09T13:44:36.531Z,36.70
2022-08-09T13:49:58.170Z,36.80
2022-08-09T13:55:07.674Z,36.80
2022-08-09T14:00:19.804Z,36.80
2022-08-09T14:05:59.479Z,36.80
2022-08-09T14:10:52.432Z,36.90
2022-08-09T14:16:09.009Z,36.90
2022-08-09T14:21:18.442Z,37.00
2022-08-09T14:26:21.682Z,37.00
2022-08-09T14:31:36.263Z,37.10
2022-08-09T14:36:49.682Z,37.10
2022-08-09T14:41:53.986Z,37.00
2022-08-09T14:47:12.639Z,37.00
2022-08-09T14:52:22.077Z,36.80
2022-08-09T14:57:31.889Z,36.70
2022-08-09T15:02:47.555Z,36.50
2022-08-09T15:07:58.285Z,36.40
2022-08-09T15:13:03.309Z,36.20
2022-08-09T15:18:08.187Z,36.00
2022-08-09T15:24:02.788Z,35.80
2022-08-09T15:28:42.052Z,35.60
2022-08-09T15:34:17.173Z,35.50
2022-08-09T15:39:10.229Z,35.30
2022-08-09T15:44:14.355Z,35.10
2022-08-09T15:49:23.906Z,34.90
2022-08-09T15:54:41.371Z,34.60
2022-08-09T15:59:51.802Z,34.50
2022-08-09T16:04:55.184Z,34.30
2022-08-09T16:10:04.775Z,34.20
2022-08-09T16:16:10.496Z,34.10
2022-08-09T16:20:33.351Z,34.00
2022-08-09T16:25:40.598Z,33.90
2022-08-09T16:30:44.818Z,33.80
2022-08-09T16:36:09.121Z,33.60
2022-08-09T16:41:19.861Z,33.60
2022-08-09T16:46:28.157Z,33.50
2022-08-09T16:51:31.751Z,33.40
2022-08-09T16:56:48.980Z,33.30
2022-08-09T17:01:53.323Z,33.20
2022-08-09T17:08:43.525Z,33.10
2022-08-09T17:12:22.955Z,33.10
2022-08-09T17:17:27.725Z,33.00
2022-08-09T17:22:31.645Z,32.90
2022-08-09T17:27:39.541Z,32.80
2022-08-09T17:32:52.884Z,32.80
2022-08-09T17:38:14.337Z,32.70
2022-08-09T17:43:34.657Z,32.60
2022-08-09T17:48:51.721Z,32.50
2022-08-09T17:53:56.361Z,32.50
2022-08-09T17:59:09.416Z,32.40
2022-08-09T18:04:15.253Z,32.30
2022-08-09T18:09:19.846Z,32.30
2022-08-09T18:14:25.676Z,32.20
2022-08-09T18:20:57.987Z,32.20
2022-08-09T18:24:52.283Z,32.10
2022-08-09T18:30:34.751Z,32.10
2022-08-09T18:35:20.361Z,32.00
2022-08-09T18:40:45.170Z,31.90
2022-08-09T18:46:51.309Z,31.90
2022-08-09T18:51:13.694Z,31.80
2022-08-09T18:56:17.136Z,31.80
2022-08-09T19:01:25.665Z,31.70
2022-08-09T19:06:29.081Z,31.60
2022-08-09T19:11:37.895Z,31.60
2022-08-09T19:16:50.222Z,31.50
2022-08-09T19:22:06.304Z,31.50
2022-08-09T19:27:10.811Z,31.40
2022-08-09T19:32:19.225Z,31.30
2022-08-09T19:37:23.274Z,31.30
2022-08-09T19:42:28.400Z,31.20
2022-08-09T19:47:38.097Z,31.20
2022-08-09T19:52:51.970Z,31.10
2022-08-09T19:57:55.563Z,31.00
2022-08-09T20:04:23.696Z,31.00
2022-08-09T20:08:24.710Z,30.90
2022-08-09T20:13:28.170Z,30.80
2022-08-09T20:18:37.340Z,30.80
2022-08-09T20:23:40.917Z,30.70
2022-08-09T20:28:48.524Z,30.70
2022-08-09T20:33:58.487Z,30.60
2022-08-09T20:39:28.971Z,30.60
2022-08-09T20:44:33.266Z,30.50
2022-08-09T20:49:40.956Z,30.50
2022-08-09T20:54:51.877Z,30.40
2022-08-09T21:00:20.274Z,30.30
2022-08-09T21:05:56.755Z,30.30
2022-08-09T21:10:46.753Z,30.30
2022-08-09T21:15:56.809Z,30.20
2022-08-09T21:21:17.166Z,30.20
2022-08-09T21:26:21.082Z,30.10
2022-08-09T21:31:48.926Z,30.10
2022-08-09T21:36:55.863Z,30.00
2022-08-09T21:42:05.814Z,30.00
2022-08-09T21:47:17.538Z,30.00
2022-08-09T21:52:23.047Z,30.00
2022-08-09T21:57:38.734Z,29.90
2022-08-09T22:02:51.062Z,29.90
2022-08-09T22:08:04.919Z,29.80
2022-08-09T22:13:11.371Z,29.80
2022-08-09T22:18:15.483Z,29.80
2022-08-09T22:23:25.429Z,29.80
2022-08-09T22:28:32.339Z,29.80
2022-08-09T22:33:48.776Z,29.70
2022-08-09T22:38:54.300Z,29.70
2022-08-09T22:44:01.279Z,29.60
2022-08-09T22:49:10.008Z,29.60
2022-08-09T22:54:15.135Z,29.60
2022-08-09T22:59:56.405Z,29.60
2022-08-09T23:04:41.945Z,29.50
2022-08-09T23:09:46.484Z,29.50
2022-08-09T23:14:49.710Z,29.50
2022-08-09T23:20:06.522Z,29.50
2022-08-09T23:25:13.010Z,29.40
2022-08-09T23:30:16.254Z,29.40
2022-08-09T23:35:19.458Z,29.40
2022-08-09T23:40:24.055Z,29.40
2022-08-09T23:45:37.540Z,29.30
2022-08-09T23:50:41.913Z,29.30
2022-08-09T23:55:49.662Z,29.30
